createdAt,value
2018-02-16T00:02:25.758Z,101022.52
2018-02-16T00:04:53.382Z,101023.69
2018-02-16T00:07:20.940Z,101025.56
2018-02-16T00:09:48.599Z,101029.47
2018-02-16T00:12:16.157Z,101031.20
2018-02-16T00:14:43.695Z,101032.34
2018-02-16T00:17:11.290Z,101035.97
2018-02-16T00:19:38.842Z,101040.39
2018-02-16T00:22:06.367Z,101037.84
2018-02-16T00:24:33.978Z,101041.73
2018-02-16T00:27:01.536Z,101043.19
2018-02-16T00:29:29.055Z,101045.53
2018-02-16T00:31:56.648Z,101042.91
2018-02-16T00:34:24.181Z,101044.00
2018-02-16T00:36:51.740Z,101051.08
2018-02-16T00:39:19.348Z,101051.73
2018-02-16T00:41:46.900Z,101049.44
2018-02-16T00:44:15.570Z,101056.46
2018-02-16T00:46:43.137Z,101054.11
2018-02-16T00:49:10.683Z,101055.33
2018-02-16T00:51:38.236Z,101052.38
2018-02-16T00:54:05.805Z,101053.37
2018-02-16T00:56:33.397Z,101056.66
2018-02-16T00:59:00.934Z,101063.36
2018-02-16T01:01:28.471Z,101062.58
2018-02-16T01:03:56.034Z,101064.52
2018-02-16T01:06:23.584Z,101068.63
2018-02-16T01:08:51.182Z,101071.81
2018-02-16T01:11:18.723Z,101076.24
2018-02-16T01:13:46.332Z,101080.31
2018-02-16T01:16:13.889Z,101081.51
2018-02-16T01:18:41.460Z,101079.83
2018-02-16T01:21:09.110Z,101080.02
2018-02-16T01:23:36.753Z,101082.36
2018-02-16T01:26:04.304Z,101085.42
2018-02-16T01:28:31.866Z,101085.03
2018-02-16T01:30:59.445Z,101089.41
2018-02-16T01:33:27.061Z,101088.27
2018-02-16T01:35:54.610Z,101092.15
2018-02-16T01:38:22.183Z,101100.95
2018-02-16T01:40:49.767Z,101092.64
2018-02-16T01:43:17.325Z,101106.88
2018-02-16T01:45:44.881Z,101106.70
2018-02-16T01:48:12.440Z,101108.63
2018-02-16T01:50:40.056Z,101111.73
2018-02-16T01:53:07.702Z,101116.25
2018-02-16T01:55:35.264Z,101110.91
2018-02-16T01:58:02.900Z,101109.11
2018-02-16T02:00:30.512Z,101111.56
2018-02-16T02:02:58.097Z,101112.52
2018-02-16T02:05:25.726Z,101115.74
2018-02-16T02:07:53.267Z,101127.00
2018-02-16T02:10:20.822Z,101121.72
2018-02-16T02:12:48.426Z,101121.66
2018-02-16T02:15:15.979Z,101124.25
2018-02-16T02:17:43.532Z,101121.91
2018-02-16T02:20:11.128Z,101124.50
2018-02-16T02:22:38.692Z,101135.98
2018-02-16T02:25:06.219Z,101136.95
2018-02-16T02:27:33.801Z,101139.80
2018-02-16T02:30:01.407Z,101140.86
2018-02-16T02:32:28.919Z,101132.59
2018-02-16T02:34:56.467Z,101142.91
2018-02-16T02:37:24.015Z,101141.33
2018-02-16T02:39:51.562Z,101147.17
2018-02-16T02:42:19.111Z,101148.02
2018-02-16T02:44:46.639Z,101155.49
2018-02-16T02:47:14.232Z,101157.53
2018-02-16T02:49:41.863Z,101164.12
2018-02-16T02:52:09.395Z,101165.80
2018-02-16T02:54:36.953Z,101170.80
2018-02-16T02:57:04.591Z,101173.89
2018-02-16T02:59:32.249Z,101174.80
2018-02-16T03:01:59.813Z,101175.48
2018-02-16T03:04:27.411Z,101180.47
2018-02-16T03:06:54.926Z,101179.26
2018-02-16T03:09:22.452Z,101180.70
2018-02-16T03:11:50.032Z,101188.67
2018-02-16T03:14:17.552Z,101189.77
2018-02-16T03:16:45.129Z,101185.75
2018-02-16T03:19:12.656Z,101187.64
2018-02-16T03:21:40.194Z,101194.28
2018-02-16T03:24:07.737Z,101200.22
2018-02-16T03:26:35.284Z,101197.31
2018-02-16T03:29:02.894Z,101203.80
2018-02-16T03:31:30.430Z,101197.61
2018-02-16T03:33:57.951Z,101204.49
2018-02-16T03:36:25.531Z,101201.38
2018-02-16T03:38:53.078Z,101211.12
2018-02-16T03:41:20.600Z,101215.11
2018-02-16T03:43:48.191Z,101218.00
2018-02-16T03:46:15.759Z,101217.94
2018-02-16T03:48:43.308Z,101217.70
2018-02-16T03:51:10.938Z,101219.22
2018-02-16T03:53:38.548Z,101223.34
2018-02-16T03:56:06.107Z,101221.13
2018-02-16T03:58:33.657Z,101229.84
2018-02-16T04:01:01.194Z,101231.25
2018-02-16T04:03:28.865Z,101232.97
2018-02-16T04:05:56.431Z,101231.58
2018-02-16T04:08:23.975Z,101235.80
2018-02-16T04:10:51.579Z,101237.32
2018-02-16T04:13:19.103Z,101236.80
2018-02-16T04:15:46.650Z,101240.73
2018-02-16T04:18:14.227Z,101245.23
2018-02-16T04:20:41.752Z,101248.92
2018-02-16T04:23:09.340Z,101244.09
2018-02-16T04:25:38.080Z,101243.89
2018-02-16T04:28:05.622Z,101251.70
2018-02-16T04:30:33.175Z,101252.20
2018-02-16T04:33:00.773Z,101255.91
2018-02-16T04:35:28.359Z,101259.73
2018-02-16T04:37:55.923Z,101258.91
2018-02-16T04:40:23.504Z,101257.47
2018-02-16T04:42:51.089Z,101262.55
2018-02-16T04:45:18.635Z,101268.38
2018-02-16T04:47:46.212Z,101270.28
2018-02-16T04:50:13.768Z,101274.19
2018-02-16T04:52:41.328Z,101282.60
2018-02-16T04:55:08.911Z,101285.22
2018-02-16T04:57:36.515Z,101286.82
2018-02-16T05:00:04.079Z,101288.83
2018-02-16T05:02:31.621Z,101297.04
2018-02-16T05:04:59.195Z,101300.27
2018-02-16T05:07:26.744Z,101305.66
2018-02-16T05:09:54.286Z,101307.66
2018-02-16T05:12:21.897Z,101312.48
2018-02-16T05:14:49.437Z,101302.64
2018-02-16T05:17:16.965Z,101303.34
2018-02-16T05:19:44.512Z,101310.07
2018-02-16T05:22:12.067Z,101315.19
2018-02-16T05:24:39.668Z,101311.17
2018-02-16T05:27:07.255Z,101316.89
2018-02-16T05:29:34.791Z,101321.21
2018-02-16T05:32:02.413Z,101322.69
2018-02-16T05:34:30.891Z,101328.03
2018-02-16T05:36:58.469Z,101335.41
2018-02-16T05:39:26.237Z,101325.02
2018-02-16T05:41:53.894Z,101331.33
2018-02-16T05:44:21.467Z,101338.64
2018-02-16T05:46:49.050Z,101338.27
2018-02-16T05:49:16.608Z,101345.98
2018-02-16T05:51:46.296Z,101354.30
2018-02-16T05:54:13.878Z,101354.47
2018-02-16T05:56:41.448Z,101351.19
2018-02-16T05:59:09.022Z,101347.97
2018-02-16T06:01:38.512Z,101357.40
2018-02-16T06:04:06.367Z,101356.41
2018-02-16T06:06:35.436Z,101356.02
2018-02-16T06:09:03.933Z,101364.13
2018-02-16T06:11:31.651Z,101364.33
2018-02-16T06:13:59.269Z,101367.83
2018-02-16T06:16:26.805Z,101373.32
2018-02-16T06:18:54.336Z,101383.95
2018-02-16T06:21:21.888Z,101380.46
2018-02-16T06:23:49.917Z,101380.76
2018-02-16T06:26:18.689Z,101391.41
2018-02-16T06:28:47.180Z,101393.98
2018-02-16T06:31:14.746Z,101393.14
2018-02-16T06:33:42.320Z,101395.58
2018-02-16T06:36:11.196Z,101396.78
2018-02-16T06:38:38.748Z,101401.86
2018-02-16T06:41:06.344Z,101404.70
2018-02-16T06:43:33.919Z,101409.28
2018-02-16T06:46:01.497Z,101409.23
2018-02-16T06:48:29.036Z,101421.25
2018-02-16T06:50:56.581Z,101423.47
2018-02-16T06:53:24.634Z,101421.75
2018-02-16T06:55:52.204Z,101431.67
2018-02-16T06:58:19.853Z,101432.91
2018-02-16T07:00:48.124Z,101433.19
2018-02-16T07:03:15.752Z,101443.30
2018-02-16T07:05:43.309Z,101435.38
2018-02-16T07:08:11.831Z,101438.52
2018-02-16T07:10:39.467Z,101443.61
2018-02-16T07:13:07.022Z,101455.77
2018-02-16T07:15:34.604Z,101450.77
2018-02-16T07:18:02.165Z,101455.27
2018-02-16T07:20:29.777Z,101453.34
2018-02-16T07:22:57.513Z,101459.06
2018-02-16T07:25:26.471Z,101457.00
2018-02-16T07:27:54.243Z,101463.00
2018-02-16T07:30:21.800Z,101463.62
2018-02-16T07:32:49.415Z,101471.17
2018-02-16T07:35:17.028Z,101469.88
2018-02-16T07:37:45.427Z,101471.50
2018-02-16T07:40:13.985Z,101473.00
2018-02-16T07:42:41.689Z,101477.45
2018-02-16T07:45:09.283Z,101478.38
2018-02-16T07:47:36.851Z,101484.19
2018-02-16T07:50:05.135Z,101487.12
2018-02-16T07:52:32.724Z,101492.84
2018-02-16T07:55:00.327Z,101491.53
2018-02-16T07:57:27.852Z,101510.61
2018-02-16T07:59:55.416Z,101510.81
2018-02-16T08:02:23.026Z,101505.81
2018-02-16T08:04:51.237Z,101512.94
2018-02-16T08:07:18.827Z,101507.63
2018-02-16T08:09:46.357Z,101514.66
2018-02-16T08:12:13.919Z,101522.28
2018-02-16T08:14:41.439Z,101527.98
2018-02-16T08:17:09.671Z,101526.48
2018-02-16T08:19:37.261Z,101527.41
2018-02-16T08:22:04.830Z,101531.02
2018-02-16T08:24:32.388Z,101523.50
2018-02-16T08:26:59.968Z,101531.63
2018-02-16T08:29:27.537Z,101540.05
2018-02-16T08:31:55.090Z,101539.84
2018-02-16T08:34:22.782Z,101537.53
2018-02-16T08:36:50.316Z,101541.55
2018-02-16T08:39:17.831Z,101542.35
2018-02-16T08:41:45.400Z,101549.28
2018-02-16T08:44:13.567Z,101552.69
2018-02-16T08:46:41.152Z,101555.50
2018-02-16T08:49:08.841Z,101564.54
2018-02-16T08:51:36.417Z,101575.87
2018-02-16T08:54:04.322Z,101581.42
2018-02-16T08:56:31.925Z,101579.88
2018-02-16T08:58:59.527Z,101578.44
2018-02-16T09:01:27.773Z,101579.95
2018-02-16T09:03:55.435Z,101583.00
2018-02-16T09:06:23.065Z,101589.22
2018-02-16T09:08:51.917Z,101587.77
2018-02-16T09:11:19.674Z,101602.81
2018-02-16T09:13:47.769Z,101601.61
2018-02-16T09:16:15.351Z,101601.98
2018-02-16T09:18:42.898Z,101612.73
2018-02-16T09:21:10.498Z,101614.80
2018-02-16T09:23:38.038Z,101620.44
2018-02-16T09:26:06.440Z,101621.55
2018-02-16T09:28:34.064Z,101626.13
2018-02-16T09:31:01.596Z,101626.88
2018-02-16T09:33:29.154Z,101628.12
2018-02-16T09:35:58.922Z,101637.84
2018-02-16T09:38:26.496Z,101640.36
2018-02-16T09:40:54.423Z,101649.65
2018-02-16T09:43:22.414Z,101645.66
2018-02-16T09:45:49.977Z,101655.02
2018-02-16T09:48:17.956Z,101655.36
2018-02-16T09:50:46.421Z,101659.12
2018-02-16T09:53:14.108Z,101675.17
2018-02-16T09:55:41.637Z,101677.86
2018-02-16T09:58:09.180Z,101681.10
2018-02-16T10:00:36.757Z,101681.83
2018-02-16T10:03:04.303Z,101677.70
2018-02-16T10:05:31.818Z,101680.23
2018-02-16T10:07:59.384Z,101681.55
2018-02-16T10:10:26.965Z,101689.45
2018-02-16T10:12:54.519Z,101696.76
2018-02-16T10:15:22.101Z,101706.49
2018-02-16T10:17:49.649Z,101706.18
2018-02-16T10:20:17.316Z,101709.83
2018-02-16T10:22:44.841Z,101702.25
2018-02-16T10:25:12.459Z,101706.09
2018-02-16T10:27:40.027Z,101713.61
2018-02-16T10:30:07.596Z,101708.29
2018-02-16T10:32:35.271Z,101714.86
2018-02-16T10:35:03.097Z,101710.34
2018-02-16T10:37:31.866Z,101713.27
2018-02-16T10:40:00.431Z,101720.89
2018-02-16T10:42:28.831Z,101721.75
2018-02-16T10:44:56.491Z,101718.66
2018-02-16T10:47:24.035Z,101728.36
2018-02-16T10:49:52.402Z,101727.25
2018-02-16T10:52:20.008Z,101733.59
2018-02-16T10:54:47.599Z,101730.68
2018-02-16T10:57:15.718Z,101728.64
2018-02-16T10:59:43.331Z,101726.73
2018-02-16T11:02:17.823Z,101726.50
2018-02-16T11:04:50.923Z,101735.96
2018-02-16T11:07:24.200Z,101729.69
2018-02-16T11:09:52.396Z,101732.17
2018-02-16T11:12:20.523Z,101727.54
2018-02-16T11:14:48.140Z,101729.72
2018-02-16T11:17:15.700Z,101728.92
2018-02-16T11:19:43.325Z,101731.36
2018-02-16T11:22:10.895Z,101730.50
2018-02-16T11:24:38.438Z,101736.67
2018-02-16T11:27:07.876Z,101738.13
2018-02-16T11:29:35.546Z,101731.86
2018-02-16T11:32:03.177Z,101737.58
2018-02-16T11:34:30.728Z,101744.34
2018-02-16T11:36:58.328Z,101743.83
2018-02-16T11:39:25.869Z,101749.98
2018-02-16T11:41:53.416Z,101756.55
2018-02-16T11:44:21.000Z,101760.50
2018-02-16T11:46:48.551Z,101763.81
2018-02-16T11:49:16.111Z,101764.49
2018-02-16T11:51:43.681Z,101768.83
2018-02-16T11:54:11.251Z,101770.42
2018-02-16T11:56:39.408Z,101768.80
2018-02-16T11:59:06.986Z,101769.80
2018-02-16T12:01:34.636Z,101773.41
2018-02-16T12:04:02.189Z,101778.91
2018-02-16T12:06:29.767Z,101787.16
2018-02-16T12:08:57.561Z,101778.09
2018-02-16T12:11:25.083Z,101789.08
2018-02-16T12:13:53.082Z,101792.86
2018-02-16T12:16:20.648Z,101788.77
2018-02-16T12:18:49.321Z,101787.97
2018-02-16T12:21:17.617Z,101794.19
2018-02-16T12:23:46.137Z,101795.25
2018-02-16T12:26:14.357Z,101793.62
2018-02-16T12:28:42.503Z,101791.02
2018-02-16T12:31:10.096Z,101793.48
2018-02-16T12:33:37.612Z,101781.81
2018-02-16T12:36:05.232Z,101788.41
2018-02-16T12:38:32.775Z,101786.05
2018-02-16T12:41:00.805Z,101789.00
2018-02-16T12:43:28.399Z,101788.24
2018-02-16T12:45:55.914Z,101795.34
2018-02-16T12:48:24.568Z,101797.92
2018-02-16T12:50:52.104Z,101790.89
2018-02-16T12:53:19.667Z,101788.96
2018-02-16T12:55:47.496Z,101789.08
2018-02-16T12:58:15.035Z,101795.55
2018-02-16T13:00:42.584Z,101789.04
2018-02-16T13:03:10.155Z,101794.52
2018-02-16T13:05:38.013Z,101808.55
2018-02-16T13:08:07.665Z,101805.80
2018-02-16T13:10:35.266Z,101801.77
2018-02-16T13:13:03.108Z,101800.36
2018-02-16T13:15:30.744Z,101802.51
2018-02-16T13:17:58.288Z,101801.80
2018-02-16T13:20:25.816Z,101806.16
2018-02-16T13:22:53.413Z,101808.70
2018-02-16T13:25:20.952Z,101798.34
2018-02-16T13:27:48.497Z,101800.85
2018-02-16T13:30:20.068Z,101807.54
2018-02-16T13:32:47.604Z,101806.63
2018-02-16T13:35:15.139Z,101803.35
2018-02-16T13:37:42.753Z,101806.51
2018-02-16T13:40:12.231Z,101805.63
2018-02-16T13:42:39.811Z,101804.08
2018-02-16T13:45:07.374Z,101804.18
2018-02-16T13:47:35.383Z,101803.59
2018-02-16T13:50:04.146Z,101800.39
2018-02-16T13:52:33.518Z,101812.56
2018-02-16T13:55:01.133Z,101802.48
2018-02-16T13:57:29.593Z,101806.55
2018-02-16T13:59:57.191Z,101800.66
2018-02-16T14:02:25.595Z,101806.03
2018-02-16T14:04:53.134Z,101803.16
2018-02-16T14:07:20.728Z,101802.45
2018-02-16T14:09:48.321Z,101806.90
2018-02-16T14:12:15.839Z,101804.05
2018-02-16T14:14:43.351Z,101806.75
2018-02-16T14:17:12.111Z,101808.19
2018-02-16T14:19:39.683Z,101807.47
2018-02-16T14:22:07.233Z,101793.74
2018-02-16T14:24:34.776Z,101803.83
2018-02-16T14:27:02.323Z,101807.96
2018-02-16T14:29:29.869Z,101801.48
2018-02-16T14:31:57.414Z,101800.53
2018-02-16T14:34:25.026Z,101805.34
2018-02-16T14:36:52.597Z,101797.75
2018-02-16T14:39:20.138Z,101805.03
2018-02-16T14:41:47.705Z,101804.64
2018-02-16T14:44:15.232Z,101805.38
2018-02-16T14:46:42.821Z,101800.86
2018-02-16T14:49:10.419Z,101805.79
2018-02-16T14:51:37.954Z,101812.61
2018-02-16T14:54:06.905Z,101813.12
2018-02-16T14:56:35.069Z,101818.61
2018-02-16T14:59:02.817Z,101818.34
2018-02-16T15:01:30.336Z,101818.06
2018-02-16T15:03:57.972Z,101818.56
2018-02-16T15:06:25.491Z,101811.66
2018-02-16T15:08:53.068Z,101814.30
2018-02-16T15:11:20.586Z,101817.98
2018-02-16T15:13:48.172Z,101815.29
2018-02-16T15:16:15.748Z,101820.89
2018-02-16T15:18:43.280Z,101819.83
2018-02-16T15:21:12.163Z,101826.67
2018-02-16T15:23:39.765Z,101820.19
2018-02-16T15:26:07.358Z,101823.27
2018-02-16T15:28:34.948Z,101815.53
2018-02-16T15:31:02.561Z,101818.20
2018-02-16T15:33:30.133Z,101813.30
2018-02-16T15:35:57.670Z,101816.61
2018-02-16T15:38:25.255Z,101824.78
2018-02-16T15:40:52.793Z,101819.63
2018-02-16T15:43:21.761Z,101830.36
2018-02-16T15:45:49.371Z,101828.11
2018-02-16T15:48:16.906Z,101832.09
2018-02-16T15:50:44.424Z,101835.57
2018-02-16T15:53:12.011Z,101838.72
2018-02-16T15:55:39.571Z,101841.33
2018-02-16T15:58:07.110Z,101847.23
2018-02-16T16:00:34.704Z,101830.59
2018-02-16T16:03:04.310Z,101841.70
2018-02-16T16:05:32.012Z,101844.74
2018-02-16T16:07:59.638Z,101850.91
2018-02-16T16:10:27.278Z,101852.09
2018-02-16T16:12:54.825Z,101852.24
2018-02-16T16:15:22.383Z,101849.78
2018-02-16T16:17:49.915Z,101855.30
2018-02-16T16:20:17.562Z,101854.64
2018-02-16T16:22:45.099Z,101852.89
2018-02-16T16:25:12.676Z,101860.34
2018-02-16T16:27:40.182Z,101866.94
2018-02-16T16:30:08.912Z,101867.29
2018-02-16T16:32:36.916Z,101870.55
2018-02-16T16:35:04.484Z,101865.18
2018-02-16T16:37:32.048Z,101872.53
2018-02-16T16:39:59.629Z,101872.15
2018-02-16T16:42:27.135Z,101879.35
2018-02-16T16:44:54.695Z,101879.78
2018-02-16T16:47:22.230Z,101884.52
2018-02-16T16:49:49.827Z,101883.36
2018-02-16T16:52:17.410Z,101884.86
2018-02-16T16:54:44.924Z,101881.41
2018-02-16T16:57:12.499Z,101876.70
2018-02-16T16:59:40.035Z,101880.75
2018-02-16T17:02:07.565Z,101880.73
2018-02-16T17:04:35.187Z,101882.35
2018-02-16T17:07:02.738Z,101877.27
2018-02-16T17:09:30.274Z,101881.52
2018-02-16T17:11:57.868Z,101884.73
2018-02-16T17:14:25.410Z,101881.12
2018-02-16T17:16:52.949Z,101881.27
2018-02-16T17:19:20.507Z,101875.01
2018-02-16T17:21:48.031Z,101880.79
2018-02-16T17:24:15.557Z,101873.69
2018-02-16T17:26:43.144Z,101880.08
2018-02-16T17:29:10.711Z,101881.78
2018-02-16T17:31:38.289Z,101883.56
2018-02-16T17:34:05.876Z,101875.62
2018-02-16T17:36:33.459Z,101879.03
2018-02-16T17:39:03.252Z,101870.67
2018-02-16T17:41:31.343Z,101873.55
2018-02-16T17:43:58.906Z,101868.81
2018-02-16T17:46:26.505Z,101867.05
2018-02-16T17:48:54.235Z,101867.09
2018-02-16T17:51:21.821Z,101870.70
2018-02-16T17:53:49.439Z,101876.00
2018-02-16T17:56:16.971Z,101881.46
2018-02-16T17:58:44.539Z,101883.19
2018-02-16T18:01:12.055Z,101879.96
2018-02-16T18:03:39.641Z,101891.04
2018-02-16T18:06:07.150Z,101889.53
2018-02-16T18:08:34.850Z,101886.72
2018-02-16T18:11:02.402Z,101885.95
2018-02-16T18:13:29.939Z,101885.89
2018-02-16T18:15:57.575Z,101885.24
2018-02-16T18:18:25.086Z,101885.84
2018-02-16T18:20:52.735Z,101887.21
2018-02-16T18:23:20.274Z,101886.77
2018-02-16T18:25:47.816Z,101890.47
2018-02-16T18:28:15.411Z,101895.80
2018-02-16T18:30:42.930Z,101898.09
2018-02-16T18:33:10.495Z,101900.55
2018-02-16T18:35:38.127Z,101899.40
2018-02-16T18:38:05.672Z,101899.97
2018-02-16T18:40:33.195Z,101906.28
2018-02-16T18:43:00.751Z,101904.47
2018-02-16T18:45:28.273Z,101905.32
2018-02-16T18:47:55.818Z,101905.23
2018-02-16T18:50:23.406Z,101902.95
2018-02-16T18:52:50.937Z,101905.16
2018-02-16T18:55:18.514Z,101910.46
2018-02-16T18:57:46.047Z,101902.53
2018-02-16T19:00:13.556Z,101910.91
2018-02-16T19:02:41.169Z,101912.86
2018-02-16T19:05:08.725Z,101910.16
2018-02-16T19:07:36.254Z,101905.63
2018-02-16T19:10:03.870Z,101900.49
2018-02-16T19:12:31.413Z,101906.53
2018-02-16T19:14:58.962Z,101896.97
2018-02-16T19:17:26.556Z,101895.28
2018-02-16T19:19:54.142Z,101896.98
2018-02-16T19:22:21.701Z,101890.52
2018-02-16T19:24:49.267Z,101891.28
2018-02-16T19:27:16.799Z,101890.97
2018-02-16T19:29:44.405Z,101897.06
2018-02-16T19:32:12.056Z,101893.05
2018-02-16T19:34:39.622Z,101893.77
2018-02-16T19:37:07.219Z,101892.72
2018-02-16T19:39:34.782Z,101894.21
2018-02-16T19:42:02.323Z,101897.81
2018-02-16T19:44:29.904Z,101898.20
2018-02-16T19:46:57.457Z,101899.53
2018-02-16T19:49:25.066Z,101895.23
2018-02-16T19:51:52.645Z,101895.69
2018-02-16T19:54:20.230Z,101898.77
2018-02-16T19:56:47.809Z,101895.09
2018-02-16T19:59:15.390Z,101900.67
2018-02-16T20:01:42.929Z,101901.15
2018-02-16T20:04:10.549Z,101902.74
2018-02-16T20:06:38.095Z,101905.91
2018-02-16T20:09:05.644Z,101900.87
2018-02-16T20:11:33.247Z,101908.61
2018-02-16T20:14:00.801Z,101901.52
2018-02-16T20:16:28.475Z,101896.62
2018-02-16T20:18:56.057Z,101897.36
2018-02-16T20:21:24.696Z,101894.64
2018-02-16T20:23:52.317Z,101905.36
2018-02-16T20:26:19.888Z,101911.63
2018-02-16T20:28:47.450Z,101912.55
2018-02-16T20:31:14.994Z,101917.05
2018-02-16T20:33:42.523Z,101916.36
2018-02-16T20:36:10.123Z,101907.66
2018-02-16T20:38:37.673Z,101913.33
2018-02-16T20:41:05.335Z,101909.59
2018-02-16T20:43:32.917Z,101910.36
2018-02-16T20:46:00.532Z,101912.33
2018-02-16T20:48:28.081Z,101920.02
2018-02-16T20:50:55.622Z,101916.83
2018-02-16T20:53:23.186Z,101917.60
2018-02-16T20:55:50.706Z,101916.83
2018-02-16T20:58:18.251Z,101915.56
2018-02-16T21:00:45.839Z,101908.25
2018-02-16T21:03:13.389Z,101907.97
2018-02-16T21:05:40.969Z,101906.64
2018-02-16T21:08:08.534Z,101904.78
2018-02-16T21:10:36.102Z,101900.58
2018-02-16T21:13:03.667Z,101903.70
2018-02-16T21:15:31.239Z,101894.66
2018-02-16T21:17:58.862Z,101888.06
2018-02-16T21:20:26.410Z,101882.47
2018-02-16T21:22:54.007Z,101874.19
2018-02-16T21:25:21.570Z,101875.66
2018-02-16T21:27:49.101Z,101879.58
2018-02-16T21:30:16.641Z,101883.51
2018-02-16T21:32:44.236Z,101880.02
2018-02-16T21:35:12.107Z,101884.07
2018-02-16T21:37:39.679Z,101883.95
2018-02-16T21:40:07.229Z,101876.36
2018-02-16T21:42:34.842Z,101877.20
2018-02-16T21:45:02.375Z,101875.06
2018-02-16T21:47:29.903Z,101878.53
2018-02-16T21:49:57.480Z,101880.78
2018-02-16T21:52:25.702Z,101877.87
2018-02-16T21:54:53.244Z,101878.27
2018-02-16T21:57:20.775Z,101879.15
2018-02-16T21:59:48.378Z,101877.84
2018-02-16T22:02:15.922Z,101890.58
2018-02-16T22:04:43.529Z,101899.40
2018-02-16T22:07:11.118Z,101896.05
2018-02-16T22:09:38.650Z,101893.91
2018-02-16T22:12:06.239Z,101895.22
2018-02-16T22:14:33.767Z,101898.19
2018-02-16T22:17:01.328Z,101898.70
2018-02-16T22:19:28.938Z,101902.31
2018-02-16T22:21:56.460Z,101905.08
2018-02-16T22:24:24.010Z,101900.72
2018-02-16T22:26:51.584Z,101907.42
2018-02-16T22:29:19.129Z,101905.80
2018-02-16T22:31:46.723Z,101906.20
2018-02-16T22:34:15.202Z,101895.59
2018-02-16T22:36:42.746Z,101894.17
2018-02-16T22:39:10.332Z,101897.70
2018-02-16T22:41:37.863Z,101911.87
2018-02-16T22:44:05.433Z,101906.70
2018-02-16T22:46:32.962Z,101907.50
2018-02-16T22:49:00.530Z,101904.78
2018-02-16T22:51:28.097Z,101909.58
2018-02-16T22:53:55.671Z,101904.16
2018-02-16T22:56:23.230Z,101898.39
2018-02-16T22:58:50.814Z,101899.34
2018-02-16T23:01:18.404Z,101891.84
2018-02-16T23:03:46.008Z,101896.83
2018-02-16T23:06:13.556Z,101898.63
2018-02-16T23:08:41.111Z,101897.48
2018-02-16T23:11:08.663Z,101896.95
2018-02-16T23:13:36.231Z,101906.62
2018-02-16T23:16:03.771Z,101908.30
2018-02-16T23:18:31.319Z,101897.44
2018-02-16T23:20:58.933Z,101891.95
2018-02-16T23:23:26.565Z,101892.41
2018-02-16T23:25:54.110Z,101895.78
2018-02-16T23:28:21.625Z,101894.20
2018-02-16T23:30:49.208Z,101888.63
2018-02-16T23:33:16.749Z,101887.15
2018-02-16T23:35:44.346Z,101887.15
2018-02-16T23:38:11.907Z,101886.85
2018-02-16T23:40:39.463Z,101889.11
2018-02-16T23:43:06.987Z,101886.02
2018-02-16T23:45:34.521Z,101891.45
2018-02-16T23:48:02.065Z,101887.52
2018-02-16T23:50:29.680Z,101890.09
2018-02-16T23:52:57.228Z,101888.33
2018-02-16T23:55:24.789Z,101881.61
2018-02-16T23:57:52.387Z,101877.47
